sensor_id;sensor_type;location;lat;lon;timestamp;P1;durP1;ratioP1;P2;durP2;ratioP2
70729;SDS011;58315;53.336;55.932;2023-06-10T00:01:52;14.68;;;3.45;;
70729;SDS011;58315;53.336;55.932;2023-06-10T00:04:21;12.82;;;3.20;;
70729;SDS011;58315;53.336;55.932;2023-06-10T00:06:47;27.52;;;3.58;;
70729;SDS011;58315;53.336;55.932;2023-06-10T00:09:15;8.70;;;3.25;;
70729;SDS011;58315;53.336;55.932;2023-06-10T00:11:41;11.75;;;3.60;;
70729;SDS011;58315;53.336;55.932;2023-06-10T00:14:08;8.40;;;3.70;;
70729;SDS011;58315;53.336;55.932;2023-06-10T00:16:34;7.45;;;3.42;;
70729;SDS011;58315;53.336;55.932;2023-06-10T00:19:02;7.68;;;3.38;;
70729;SDS011;58315;53.336;55.932;2023-06-10T00:21:32;8.05;;;3.95;;
70729;SDS011;58315;53.336;55.932;2023-06-10T00:24:04;9.05;;;3.15;;
70729;SDS011;58315;53.336;55.932;2023-06-10T00:26:35;13.98;;;3.58;;
70729;SDS011;58315;53.336;55.932;2023-06-10T00:29:01;14.65;;;3.13;;
70729;SDS011;58315;53.336;55.932;2023-06-10T00:31:27;8.85;;;3.60;;
70729;SDS011;58315;53.336;55.932;2023-06-10T00:33:53;17.60;;;3.67;;
70729;SDS011;58315;53.336;55.932;2023-06-10T00:36:20;7.07;;;2.95;;
70729;SDS011;58315;53.336;55.932;2023-06-10T00:38:46;6.95;;;3.03;;
70729;SDS011;58315;53.336;55.932;2023-06-10T00:41:13;8.05;;;3.00;;
70729;SDS011;58315;53.336;55.932;2023-06-10T00:43:40;8.50;;;3.03;;
70729;SDS011;58315;53.336;55.932;2023-06-10T00:46:07;8.23;;;3.40;;
70729;SDS011;58315;53.336;55.932;2023-06-10T00:48:33;19.88;;;3.33;;
70729;SDS011;58315;53.336;55.932;2023-06-10T00:50:59;8.13;;;3.25;;
70729;SDS011;58315;53.336;55.932;2023-06-10T00:53:26;6.88;;;2.97;;
70729;SDS011;58315;53.336;55.932;2023-06-10T00:55:53;6.03;;;3.03;;
70729;SDS011;58315;53.336;55.932;2023-06-10T00:58:19;6.82;;;3.30;;
70729;SDS011;58315;53.336;55.932;2023-06-10T01:00:48;6.20;;;3.25;;
70729;SDS011;58315;53.336;55.932;2023-06-10T01:03:15;13.32;;;3.17;;
70729;SDS011;58315;53.336;55.932;2023-06-10T01:05:42;11.32;;;3.60;;
70729;SDS011;58315;53.336;55.932;2023-06-10T01:08:12;11.27;;;3.38;;
70729;SDS011;58315;53.336;55.932;2023-06-10T01:10:53;16.92;;;3.83;;
70729;SDS011;58315;53.336;55.932;2023-06-10T01:13:23;12.15;;;3.10;;
70729;SDS011;58315;53.336;55.932;2023-06-10T01:15:57;9.18;;;3.17;;
70729;SDS011;58315;53.336;55.932;2023-06-10T01:18:29;7.40;;;2.92;;
70729;SDS011;58315;53.336;55.932;2023-06-10T01:20:58;4.40;;;2.50;;
70729;SDS011;58315;53.336;55.932;2023-06-10T01:23:24;7.75;;;3.58;;
70729;SDS011;58315;53.336;55.932;2023-06-10T01:25:59;14.20;;;3.53;;
70729;SDS011;58315;53.336;55.932;2023-06-10T01:28:46;9.80;;;3.33;;
70729;SDS011;58315;53.336;55.932;2023-06-10T01:31:31;5.28;;;3.13;;
70729;SDS011;58315;53.336;55.932;2023-06-10T01:34:03;6.13;;;3.00;;
70729;SDS011;58315;53.336;55.932;2023-06-10T01:36:34;9.68;;;2.95;;
70729;SDS011;58315;53.336;55.932;2023-06-10T01:39:02;6.00;;;2.80;;
70729;SDS011;58315;53.336;55.932;2023-06-10T01:41:30;6.65;;;3.05;;
70729;SDS011;58315;53.336;55.932;2023-06-10T01:43:57;7.13;;;2.35;;
70729;SDS011;58315;53.336;55.932;2023-06-10T01:46:23;9.70;;;3.03;;
70729;SDS011;58315;53.336;55.932;2023-06-10T01:48:49;7.43;;;3.10;;
70729;SDS011;58315;53.336;55.932;2023-06-10T01:51:15;11.48;;;3.17;;
70729;SDS011;58315;53.336;55.932;2023-06-10T01:53:42;6.53;;;2.80;;
70729;SDS011;58315;53.336;55.932;2023-06-10T01:56:08;7.03;;;3.13;;
70729;SDS011;58315;53.336;55.932;2023-06-10T01:58:34;8.57;;;3.13;;
70729;SDS011;58315;53.336;55.932;2023-06-10T02:01:00;8.10;;;3.00;;
70729;SDS011;58315;53.336;55.932;2023-06-10T02:03:26;7.18;;;3.00;;
70729;SDS011;58315;53.336;55.932;2023-06-10T02:05:52;11.43;;;3.35;;
70729;SDS011;58315;53.336;55.932;2023-06-10T02:08:18;9.77;;;3.05;;
70729;SDS011;58315;53.336;55.932;2023-06-10T02:10:44;10.02;;;3.10;;
70729;SDS011;58315;53.336;55.932;2023-06-10T02:13:11;11.10;;;3.05;;
70729;SDS011;58315;53.336;55.932;2023-06-10T02:15:38;11.77;;;3.25;;
70729;SDS011;58315;53.336;55.932;2023-06-10T02:18:04;21.40;;;3.40;;
70729;SDS011;58315;53.336;55.932;2023-06-10T02:20:30;8.20;;;3.30;;
70729;SDS011;58315;53.336;55.932;2023-06-10T02:22:56;7.43;;;2.90;;
70729;SDS011;58315;53.336;55.932;2023-06-10T02:25:23;8.80;;;3.22;;
70729;SDS011;58315;53.336;55.932;2023-06-10T02:27:50;5.28;;;2.78;;
70729;SDS011;58315;53.336;55.932;2023-06-10T02:30:17;7.68;;;2.65;;
70729;SDS011;58315;53.336;55.932;2023-06-10T02:32:44;8.40;;;2.85;;
70729;SDS011;58315;53.336;55.932;2023-06-10T02:35:15;5.32;;;2.58;;
70729;SDS011;58315;53.336;55.932;2023-06-10T02:37:41;7.97;;;2.85;;
70729;SDS011;58315;53.336;55.932;2023-06-10T02:40:08;6.53;;;3.05;;
70729;SDS011;58315;53.336;55.932;2023-06-10T02:42:35;16.38;;;3.05;;
70729;SDS011;58315;53.336;55.932;2023-06-10T02:45:01;6.53;;;2.60;;
70729;SDS011;58315;53.336;55.932;2023-06-10T02:47:38;9.52;;;3.00;;
70729;SDS011;58315;53.336;55.932;2023-06-10T02:50:06;5.05;;;2.75;;
70729;SDS011;58315;53.336;55.932;2023-06-10T02:52:39;13.38;;;3.13;;
70729;SDS011;58315;53.336;55.932;2023-06-10T02:55:05;9.00;;;2.97;;
70729;SDS011;58315;53.336;55.932;2023-06-10T02:57:32;9.85;;;2.67;;
70729;SDS011;58315;53.336;55.932;2023-06-10T02:59:59;10.77;;;2.80;;
70729;SDS011;58315;53.336;55.932;2023-06-10T03:02:25;11.02;;;3.05;;
70729;SDS011;58315;53.336;55.932;2023-06-10T03:04:55;7.68;;;2.95;;
70729;SDS011;58315;53.336;55.932;2023-06-10T03:07:22;9.65;;;2.70;;
70729;SDS011;58315;53.336;55.932;2023-06-10T03:09:50;12.82;;;3.05;;
70729;SDS011;58315;53.336;55.932;2023-06-10T03:12:16;13.07;;;2.60;;
70729;SDS011;58315;53.336;55.932;2023-06-10T03:14:46;17.85;;;3.53;;
70729;SDS011;58315;53.336;55.932;2023-06-10T03:17:12;13.15;;;3.50;;
70729;SDS011;58315;53.336;55.932;2023-06-10T03:19:41;12.30;;;3.30;;
70729;SDS011;58315;53.336;55.932;2023-06-10T03:22:08;10.90;;;4.18;;
70729;SDS011;58315;53.336;55.932;2023-06-10T03:24:44;16.55;;;3.40;;
70729;SDS011;58315;53.336;55.932;2023-06-10T03:27:12;12.77;;;3.40;;
70729;SDS011;58315;53.336;55.932;2023-06-10T03:29:41;9.73;;;3.10;;
70729;SDS011;58315;53.336;55.932;2023-06-10T03:32:08;19.90;;;3.83;;
70729;SDS011;58315;53.336;55.932;2023-06-10T03:34:36;15.57;;;3.53;;
70729;SDS011;58315;53.336;55.932;2023-06-10T03:37:02;9.88;;;3.53;;
70729;SDS011;58315;53.336;55.932;2023-06-10T03:39:29;11.07;;;3.17;;
70729;SDS011;58315;53.336;55.932;2023-06-10T03:41:57;14.85;;;3.10;;
70729;SDS011;58315;53.336;55.932;2023-06-10T03:44:25;14.68;;;2.63;;
70729;SDS011;58315;53.336;55.932;2023-06-10T03:46:54;13.15;;;2.95;;
70729;SDS011;58315;53.336;55.932;2023-06-10T03:49:21;10.77;;;2.38;;
70729;SDS011;58315;53.336;55.932;2023-06-10T03:51:54;8.02;;;2.55;;
70729;SDS011;58315;53.336;55.932;2023-06-10T03:54:20;8.27;;;2.40;;
70729;SDS011;58315;53.336;55.932;2023-06-10T03:56:47;20.15;;;3.30;;
70729;SDS011;58315;53.336;55.932;2023-06-10T03:59:16;8.90;;;2.45;;
70729;SDS011;58315;53.336;55.932;2023-06-10T04:01:42;15.35;;;2.55;;
70729;SDS011;58315;53.336;55.932;2023-06-10T04:04:09;9.55;;;2.35;;
70729;SDS011;58315;53.336;55.932;2023-06-10T04:06:36;9.07;;;2.55;;
70729;SDS011;58315;53.336;55.932;2023-06-10T04:09:04;6.28;;;2.25;;
70729;SDS011;58315;53.336;55.932;2023-06-10T04:11:31;8.27;;;2.20;;
70729;SDS011;58315;53.336;55.932;2023-06-10T04:13:58;18.98;;;2.30;;
70729;SDS011;58315;53.336;55.932;2023-06-10T04:16:25;13.50;;;2.67;;
70729;SDS011;58315;53.336;55.932;2023-06-10T04:18:52;6.40;;;2.22;;
70729;SDS011;58315;53.336;55.932;2023-06-10T04:21:18;13.18;;;2.35;;
70729;SDS011;58315;53.336;55.932;2023-06-10T04:23:44;10.38;;;1.95;;
70729;SDS011;58315;53.336;55.932;2023-06-10T04:26:11;6.80;;;2.72;;
70729;SDS011;58315;53.336;55.932;2023-06-10T04:28:39;12.90;;;2.40;;
70729;SDS011;58315;53.336;55.932;2023-06-10T04:31:05;6.32;;;2.10;;
70729;SDS011;58315;53.336;55.932;2023-06-10T04:33:33;11.00;;;2.35;;
70729;SDS011;58315;53.336;55.932;2023-06-10T04:36:02;7.22;;;2.25;;
70729;SDS011;58315;53.336;55.932;2023-06-10T04:38:30;7.32;;;2.10;;
70729;SDS011;58315;53.336;55.932;2023-06-10T04:40:57;10.48;;;2.30;;
70729;SDS011;58315;53.336;55.932;2023-06-10T04:43:25;7.78;;;2.22;;
70729;SDS011;58315;53.336;55.932;2023-06-10T04:45:51;7.00;;;2.13;;
70729;SDS011;58315;53.336;55.932;2023-06-10T04:48:17;15.73;;;2.75;;
70729;SDS011;58315;53.336;55.932;2023-06-10T04:50:43;10.93;;;2.42;;
70729;SDS011;58315;53.336;55.932;2023-06-10T04:53:10;9.35;;;2.28;;
70729;SDS011;58315;53.336;55.932;2023-06-10T04:55:38;8.13;;;2.25;;
70729;SDS011;58315;53.336;55.932;2023-06-10T04:58:04;13.60;;;2.55;;
70729;SDS011;58315;53.336;55.932;2023-06-10T05:00:31;7.13;;;1.92;;
70729;SDS011;58315;53.336;55.932;2023-06-10T05:02:56;6.55;;;2.30;;
70729;SDS011;58315;53.336;55.932;2023-06-10T05:05:22;6.45;;;2.05;;
70729;SDS011;58315;53.336;55.932;2023-06-10T05:07:49;5.22;;;2.42;;
70729;SDS011;58315;53.336;55.932;2023-06-10T05:10:15;11.32;;;2.28;;
70729;SDS011;58315;53.336;55.932;2023-06-10T05:12:41;14.75;;;2.65;;
70729;SDS011;58315;53.336;55.932;2023-06-10T05:15:07;17.58;;;2.55;;
70729;SDS011;58315;53.336;55.932;2023-06-10T05:17:34;15.02;;;2.33;;
70729;SDS011;58315;53.336;55.932;2023-06-10T05:20:03;11.93;;;2.63;;
70729;SDS011;58315;53.336;55.932;2023-06-10T05:22:31;10.07;;;2.53;;
70729;SDS011;58315;53.336;55.932;2023-06-10T05:24:58;17.17;;;2.05;;
70729;SDS011;58315;53.336;55.932;2023-06-10T05:27:27;11.80;;;1.92;;
70729;SDS011;58315;53.336;55.932;2023-06-10T05:29:53;14.05;;;2.13;;
70729;SDS011;58315;53.336;55.932;2023-06-10T05:32:19;8.50;;;2.10;;
70729;SDS011;58315;53.336;55.932;2023-06-10T05:34:45;17.52;;;2.40;;
70729;SDS011;58315;53.336;55.932;2023-06-10T05:37:12;21.52;;;2.28;;
70729;SDS011;58315;53.336;55.932;2023-06-10T05:39:38;14.90;;;2.55;;
70729;SDS011;58315;53.336;55.932;2023-06-10T05:42:06;7.68;;;2.75;;
70729;SDS011;58315;53.336;55.932;2023-06-10T05:44:33;11.05;;;2.40;;
70729;SDS011;58315;53.336;55.932;2023-06-10T05:47:00;22.27;;;3.10;;
70729;SDS011;58315;53.336;55.932;2023-06-10T05:49:26;10.77;;;2.40;;
70729;SDS011;58315;53.336;55.932;2023-06-10T05:51:52;13.30;;;3.30;;
70729;SDS011;58315;53.336;55.932;2023-06-10T05:54:19;9.18;;;2.80;;
70729;SDS011;58315;53.336;55.932;2023-06-10T05:56:45;8.60;;;2.38;;
70729;SDS011;58315;53.336;55.932;2023-06-10T05:59:12;6.35;;;2.38;;
70729;SDS011;58315;53.336;55.932;2023-06-10T06:01:38;11.35;;;2.33;;
70729;SDS011;58315;53.336;55.932;2023-06-10T06:04:05;11.15;;;2.30;;
70729;SDS011;58315;53.336;55.932;2023-06-10T06:06:31;6.50;;;2.42;;
70729;SDS011;58315;53.336;55.932;2023-06-10T06:08:58;3.47;;;2.13;;
70729;SDS011;58315;53.336;55.932;2023-06-10T06:11:24;9.32;;;2.97;;
70729;SDS011;58315;53.336;55.932;2023-06-10T06:13:52;10.82;;;2.30;;
70729;SDS011;58315;53.336;55.932;2023-06-10T06:16:18;8.70;;;2.03;;
70729;SDS011;58315;53.336;55.932;2023-06-10T06:18:44;9.32;;;2.67;;
70729;SDS011;58315;53.336;55.932;2023-06-10T06:21:10;8.32;;;2.78;;
70729;SDS011;58315;53.336;55.932;2023-06-10T06:23:37;12.65;;;2.42;;
70729;SDS011;58315;53.336;55.932;2023-06-10T06:26:03;18.23;;;2.80;;
70729;SDS011;58315;53.336;55.932;2023-06-10T06:28:29;14.02;;;2.53;;
70729;SDS011;58315;53.336;55.932;2023-06-10T06:30:57;5.65;;;2.08;;
70729;SDS011;58315;53.336;55.932;2023-06-10T06:33:23;14.75;;;2.15;;
70729;SDS011;58315;53.336;55.932;2023-06-10T06:35:49;11.93;;;2.50;;
70729;SDS011;58315;53.336;55.932;2023-06-10T06:38:15;9.82;;;2.22;;
70729;SDS011;58315;53.336;55.932;2023-06-10T06:40:41;12.43;;;2.35;;
70729;SDS011;58315;53.336;55.932;2023-06-10T06:43:07;11.23;;;2.30;;
70729;SDS011;58315;53.336;55.932;2023-06-10T06:45:36;6.82;;;2.15;;
70729;SDS011;58315;53.336;55.932;2023-06-10T06:48:03;6.88;;;2.10;;
70729;SDS011;58315;53.336;55.932;2023-06-10T06:50:30;15.43;;;2.38;;
70729;SDS011;58315;53.336;55.932;2023-06-10T06:52:56;11.07;;;2.20;;
70729;SDS011;58315;53.336;55.932;2023-06-10T06:55:22;11.93;;;2.60;;
70729;SDS011;58315;53.336;55.932;2023-06-10T06:57:48;11.70;;;2.20;;
70729;SDS011;58315;53.336;55.932;2023-06-10T07:00:15;8.63;;;2.40;;
70729;SDS011;58315;53.336;55.932;2023-06-10T07:02:41;13.88;;;2.20;;
70729;SDS011;58315;53.336;55.932;2023-06-10T07:05:07;12.70;;;2.63;;
70729;SDS011;58315;53.336;55.932;2023-06-10T07:07:34;6.55;;;2.20;;
70729;SDS011;58315;53.336;55.932;2023-06-10T07:10:00;15.30;;;2.67;;
70729;SDS011;58315;53.336;55.932;2023-06-10T07:12:29;12.00;;;2.23;;
70729;SDS011;58315;53.336;55.932;2023-06-10T07:14:57;8.00;;;2.15;;
70729;SDS011;58315;53.336;55.932;2023-06-10T07:17:23;6.88;;;2.15;;
70729;SDS011;58315;53.336;55.932;2023-06-10T07:19:49;15.57;;;2.50;;
70729;SDS011;58315;53.336;55.932;2023-06-10T07:22:17;5.93;;;2.20;;
70729;SDS011;58315;53.336;55.932;2023-06-10T07:24:43;14.40;;;2.60;;
70729;SDS011;58315;53.336;55.932;2023-06-10T07:27:09;4.68;;;1.98;;
70729;SDS011;58315;53.336;55.932;2023-06-10T07:29:35;15.30;;;2.47;;
70729;SDS011;58315;53.336;55.932;2023-06-10T07:32:03;7.57;;;2.60;;
70729;SDS011;58315;53.336;55.932;2023-06-10T07:34:29;8.63;;;2.42;;
70729;SDS011;58315;53.336;55.932;2023-06-10T07:36:55;10.82;;;2.47;;
70729;SDS011;58315;53.336;55.932;2023-06-10T07:39:21;13.38;;;3.22;;
70729;SDS011;58315;53.336;55.932;2023-06-10T07:41:47;17.65;;;2.70;;
70729;SDS011;58315;53.336;55.932;2023-06-10T07:44:15;19.73;;;2.40;;
70729;SDS011;58315;53.336;55.932;2023-06-10T07:46:41;6.93;;;2.50;;
70729;SDS011;58315;53.336;55.932;2023-06-10T07:49:07;7.45;;;2.60;;
70729;SDS011;58315;53.336;55.932;2023-06-10T07:51:33;9.38;;;2.38;;
70729;SDS011;58315;53.336;55.932;2023-06-10T07:53:59;14.32;;;2.50;;
70729;SDS011;58315;53.336;55.932;2023-06-10T07:56:25;10.43;;;2.33;;
70729;SDS011;58315;53.336;55.932;2023-06-10T07:58:52;4.82;;;2.20;;
70729;SDS011;58315;53.336;55.932;2023-06-10T08:01:18;7.38;;;2.20;;
70729;SDS011;58315;53.336;55.932;2023-06-10T08:03:44;9.05;;;2.50;;
70729;SDS011;58315;53.336;55.932;2023-06-10T08:06:10;11.60;;;3.47;;
70729;SDS011;58315;53.336;55.932;2023-06-10T08:08:37;6.28;;;2.30;;
70729;SDS011;58315;53.336;55.932;2023-06-10T08:11:08;7.07;;;2.40;;
70729;SDS011;58315;53.336;55.932;2023-06-10T08:13:36;12.02;;;2.90;;
70729;SDS011;58315;53.336;55.932;2023-06-10T08:16:02;5.65;;;2.60;;
70729;SDS011;58315;53.336;55.932;2023-06-10T08:18:29;14.15;;;3.03;;
70729;SDS011;58315;53.336;55.932;2023-06-10T08:20:55;10.27;;;2.50;;
70729;SDS011;58315;53.336;55.932;2023-06-10T08:23:21;16.58;;;2.60;;
70729;SDS011;58315;53.336;55.932;2023-06-10T08:25:47;12.70;;;2.72;;
70729;SDS011;58315;53.336;55.932;2023-06-10T08:28:13;15.25;;;2.55;;
70729;SDS011;58315;53.336;55.932;2023-06-10T08:30:39;7.93;;;2.33;;
70729;SDS011;58315;53.336;55.932;2023-06-10T08:33:05;7.65;;;2.65;;
70729;SDS011;58315;53.336;55.932;2023-06-10T08:35:32;5.82;;;2.33;;
70729;SDS011;58315;53.336;55.932;2023-06-10T08:37:58;11.70;;;2.53;;
70729;SDS011;58315;53.336;55.932;2023-06-10T08:40:24;12.27;;;2.60;;
70729;SDS011;58315;53.336;55.932;2023-06-10T08:43:06;12.57;;;2.30;;
70729;SDS011;58315;53.336;55.932;2023-06-10T08:45:34;8.45;;;2.40;;
70729;SDS011;58315;53.336;55.932;2023-06-10T08:48:05;10.00;;;2.63;;
70729;SDS011;58315;53.336;55.932;2023-06-10T08:50:38;8.25;;;2.30;;
70729;SDS011;58315;53.336;55.932;2023-06-10T08:53:04;8.27;;;2.50;;
70729;SDS011;58315;53.336;55.932;2023-06-10T08:55:33;9.77;;;2.42;;
70729;SDS011;58315;53.336;55.932;2023-06-10T08:58:02;10.63;;;2.80;;
70729;SDS011;58315;53.336;55.932;2023-06-10T09:00:30;7.57;;;2.70;;
70729;SDS011;58315;53.336;55.932;2023-06-10T09:02:58;9.52;;;2.50;;
70729;SDS011;58315;53.336;55.932;2023-06-10T09:05:24;5.55;;;2.47;;
70729;SDS011;58315;53.336;55.932;2023-06-10T09:07:53;10.48;;;2.72;;
70729;SDS011;58315;53.336;55.932;2023-06-10T09:10:19;8.00;;;2.78;;
70729;SDS011;58315;53.336;55.932;2023-06-10T09:12:45;13.98;;;2.67;;
70729;SDS011;58315;53.336;55.932;2023-06-10T09:15:11;17.23;;;2.88;;
70729;SDS011;58315;53.336;55.932;2023-06-10T09:17:38;4.93;;;2.58;;
70729;SDS011;58315;53.336;55.932;2023-06-10T09:20:09;6.50;;;2.60;;
70729;SDS011;58315;53.336;55.932;2023-06-10T09:22:36;9.48;;;2.70;;
70729;SDS011;58315;53.336;55.932;2023-06-10T09:25:03;13.48;;;2.80;;
70729;SDS011;58315;53.336;55.932;2023-06-10T09:27:31;5.97;;;2.28;;
70729;SDS011;58315;53.336;55.932;2023-06-10T09:30:00;18.33;;;2.95;;
70729;SDS011;58315;53.336;55.932;2023-06-10T09:32:26;8.18;;;2.55;;
70729;SDS011;58315;53.336;55.932;2023-06-10T09:34:52;14.88;;;2.72;;
70729;SDS011;58315;53.336;55.932;2023-06-10T09:37:22;9.70;;;2.30;;
70729;SDS011;58315;53.336;55.932;2023-06-10T09:40:02;5.93;;;2.38;;
70729;SDS011;58315;53.336;55.932;2023-06-10T09:42:32;5.30;;;2.67;;
70729;SDS011;58315;53.336;55.932;2023-06-10T09:45:02;12.77;;;2.50;;
70729;SDS011;58315;53.336;55.932;2023-06-10T09:47:31;7.40;;;2.67;;
70729;SDS011;58315;53.336;55.932;2023-06-10T09:49:57;8.80;;;2.83;;
70729;SDS011;58315;53.336;55.932;2023-06-10T09:52:24;8.50;;;2.97;;
70729;SDS011;58315;53.336;55.932;2023-06-10T09:54:51;8.85;;;2.88;;
70729;SDS011;58315;53.336;55.932;2023-06-10T09:57:18;5.80;;;2.20;;
70729;SDS011;58315;53.336;55.932;2023-06-10T09:59:46;5.25;;;2.58;;
70729;SDS011;58315;53.336;55.932;2023-06-10T10:02:15;7.63;;;2.78;;
70729;SDS011;58315;53.336;55.932;2023-06-10T10:07:11;5.93;;;2.60;;
70729;SDS011;58315;53.336;55.932;2023-06-10T10:09:38;21.23;;;2.95;;
70729;SDS011;58315;53.336;55.932;2023-06-10T10:12:11;8.05;;;2.40;;
70729;SDS011;58315;53.336;55.932;2023-06-10T10:14:47;6.88;;;2.80;;
70729;SDS011;58315;53.336;55.932;2023-06-10T10:17:14;7.43;;;3.70;;
70729;SDS011;58315;53.336;55.932;2023-06-10T10:19:53;12.10;;;2.80;;
70729;SDS011;58315;53.336;55.932;2023-06-10T10:22:25;10.60;;;2.45;;
70729;SDS011;58315;53.336;55.932;2023-06-10T10:24:53;8.27;;;2.65;;
70729;SDS011;58315;53.336;55.932;2023-06-10T10:27:30;10.45;;;2.75;;
70729;SDS011;58315;53.336;55.932;2023-06-10T10:30:01;8.13;;;2.55;;
70729;SDS011;58315;53.336;55.932;2023-06-10T10:32:38;7.85;;;2.70;;
70729;SDS011;58315;53.336;55.932;2023-06-10T10:35:19;8.40;;;2.50;;
70729;SDS011;58315;53.336;55.932;2023-06-10T10:37:48;12.35;;;3.03;;
70729;SDS011;58315;53.336;55.932;2023-06-10T10:40:17;4.20;;;2.40;;
70729;SDS011;58315;53.336;55.932;2023-06-10T10:42:46;7.25;;;2.53;;
70729;SDS011;58315;53.336;55.932;2023-06-10T10:45:14;11.70;;;2.60;;
70729;SDS011;58315;53.336;55.932;2023-06-10T10:47:41;11.75;;;2.78;;
70729;SDS011;58315;53.336;55.932;2023-06-10T10:50:16;7.00;;;2.97;;
70729;SDS011;58315;53.336;55.932;2023-06-10T10:55:25;8.38;;;2.53;;
70729;SDS011;58315;53.336;55.932;2023-06-10T10:57:59;6.53;;;2.72;;
70729;SDS011;58315;53.336;55.932;2023-06-10T11:00:32;5.93;;;3.08;;
70729;SDS011;58315;53.336;55.932;2023-06-10T11:08:07;10.85;;;2.55;;
70729;SDS011;58315;53.336;55.932;2023-06-10T11:10:35;7.18;;;2.65;;
70729;SDS011;58315;53.336;55.932;2023-06-10T11:15:39;12.25;;;2.95;;
70729;SDS011;58315;53.336;55.932;2023-06-10T11:20:52;26.55;;;3.13;;
70729;SDS011;58315;53.336;55.932;2023-06-10T11:28:38;9.70;;;2.83;;
70729;SDS011;58315;53.336;55.932;2023-06-10T11:31:09;7.85;;;2.95;;
70729;SDS011;58315;53.336;55.932;2023-06-10T11:33:53;11.05;;;2.60;;
70729;SDS011;58315;53.336;55.932;2023-06-10T11:36:21;12.07;;;2.58;;
70729;SDS011;58315;53.336;55.932;2023-06-10T11:38:47;6.03;;;2.40;;
70729;SDS011;58315;53.336;55.932;2023-06-10T11:41:14;5.00;;;2.70;;
70729;SDS011;58315;53.336;55.932;2023-06-10T11:43:44;10.27;;;3.10;;
70729;SDS011;58315;53.336;55.932;2023-06-10T11:46:15;19.92;;;4.35;;
70729;SDS011;58315;53.336;55.932;2023-06-10T11:48:54;15.60;;;3.85;;
70729;SDS011;58315;53.336;55.932;2023-06-10T11:51:27;11.45;;;4.03;;
70729;SDS011;58315;53.336;55.932;2023-06-10T11:53:58;11.70;;;3.20;;
70729;SDS011;58315;53.336;55.932;2023-06-10T11:56:28;7.63;;;3.22;;
70729;SDS011;58315;53.336;55.932;2023-06-10T11:58:56;8.73;;;3.33;;
70729;SDS011;58315;53.336;55.932;2023-06-10T12:01:25;18.42;;;4.32;;
70729;SDS011;58315;53.336;55.932;2023-06-10T12:04:05;11.68;;;3.60;;
70729;SDS011;58315;53.336;55.932;2023-06-10T12:09:18;18.40;;;4.10;;
70729;SDS011;58315;53.336;55.932;2023-06-10T12:11:45;9.75;;;3.22;;
70729;SDS011;58315;53.336;55.932;2023-06-10T12:14:13;11.97;;;3.23;;
70729;SDS011;58315;53.336;55.932;2023-06-10T12:16:39;9.90;;;3.15;;
70729;SDS011;58315;53.336;55.932;2023-06-10T12:19:06;12.93;;;3.17;;
70729;SDS011;58315;53.336;55.932;2023-06-10T12:21:33;14.80;;;2.97;;
70729;SDS011;58315;53.336;55.932;2023-06-10T12:24:01;7.70;;;2.83;;
70729;SDS011;58315;53.336;55.932;2023-06-10T12:26:36;13.25;;;3.55;;
70729;SDS011;58315;53.336;55.932;2023-06-10T12:29:20;5.72;;;3.22;;
70729;SDS011;58315;53.336;55.932;2023-06-10T12:31:57;13.40;;;2.83;;
70729;SDS011;58315;53.336;55.932;2023-06-10T12:34:35;4.30;;;2.50;;
70729;SDS011;58315;53.336;55.932;2023-06-10T12:39:32;7.35;;;2.95;;
70729;SDS011;58315;53.336;55.932;2023-06-10T12:41:59;6.95;;;2.92;;
70729;SDS011;58315;53.336;55.932;2023-06-10T12:44:33;6.97;;;3.20;;
70729;SDS011;58315;53.336;55.932;2023-06-10T12:47:01;7.70;;;2.88;;
70729;SDS011;58315;53.336;55.932;2023-06-10T12:49:34;7.15;;;2.90;;
70729;SDS011;58315;53.336;55.932;2023-06-10T12:52:01;9.55;;;3.13;;
70729;SDS011;58315;53.336;55.932;2023-06-10T12:54:30;8.18;;;3.08;;
70729;SDS011;58315;53.336;55.932;2023-06-10T12:56:56;9.43;;;2.95;;
70729;SDS011;58315;53.336;55.932;2023-06-10T12:59:23;13.25;;;3.00;;
70729;SDS011;58315;53.336;55.932;2023-06-10T13:01:50;12.70;;;3.13;;
70729;SDS011;58315;53.336;55.932;2023-06-10T13:04:17;6.22;;;2.60;;
70729;SDS011;58315;53.336;55.932;2023-06-10T13:06:44;4.82;;;2.67;;
70729;SDS011;58315;53.336;55.932;2023-06-10T13:09:10;6.90;;;2.88;;
70729;SDS011;58315;53.336;55.932;2023-06-10T13:11:36;11.68;;;3.80;;
70729;SDS011;58315;53.336;55.932;2023-06-10T13:14:03;8.68;;;4.47;;
70729;SDS011;58315;53.336;55.932;2023-06-10T13:16:31;13.15;;;5.28;;
70729;SDS011;58315;53.336;55.932;2023-06-10T13:18:58;10.45;;;5.00;;
70729;SDS011;58315;53.336;55.932;2023-06-10T13:21:25;7.68;;;4.60;;
70729;SDS011;58315;53.336;55.932;2023-06-10T13:23:51;9.32;;;5.05;;
70729;SDS011;58315;53.336;55.932;2023-06-10T13:26:17;16.52;;;5.20;;
70729;SDS011;58315;53.336;55.932;2023-06-10T13:28:44;12.50;;;5.22;;
70729;SDS011;58315;53.336;55.932;2023-06-10T13:31:10;15.35;;;4.28;;
70729;SDS011;58315;53.336;55.932;2023-06-10T13:33:36;9.43;;;4.10;;
70729;SDS011;58315;53.336;55.932;2023-06-10T13:36:03;7.78;;;3.35;;
70729;SDS011;58315;53.336;55.932;2023-06-10T13:38:29;7.97;;;3.83;;
70729;SDS011;58315;53.336;55.932;2023-06-10T13:40:55;6.25;;;3.25;;
70729;SDS011;58315;53.336;55.932;2023-06-10T13:43:21;8.63;;;3.67;;
70729;SDS011;58315;53.336;55.932;2023-06-10T13:45:48;7.22;;;3.40;;
70729;SDS011;58315;53.336;55.932;2023-06-10T13:48:15;10.15;;;3.85;;
70729;SDS011;58315;53.336;55.932;2023-06-10T13:50:41;11.13;;;3.22;;
70729;SDS011;58315;53.336;55.932;2023-06-10T13:53:11;6.38;;;3.50;;
70729;SDS011;58315;53.336;55.932;2023-06-10T13:55:37;10.43;;;4.20;;
70729;SDS011;58315;53.336;55.932;2023-06-10T13:58:03;8.95;;;4.47;;
70729;SDS011;58315;53.336;55.932;2023-06-10T14:00:31;11.50;;;4.18;;
70729;SDS011;58315;53.336;55.932;2023-06-10T14:02:57;10.48;;;4.32;;
70729;SDS011;58315;53.336;55.932;2023-06-10T14:05:23;9.90;;;4.82;;
70729;SDS011;58315;53.336;55.932;2023-06-10T14:07:49;14.70;;;4.70;;
70729;SDS011;58315;53.336;55.932;2023-06-10T14:10:15;9.75;;;4.55;;
70729;SDS011;58315;53.336;55.932;2023-06-10T14:12:41;10.40;;;4.50;;
70729;SDS011;58315;53.336;55.932;2023-06-10T14:15:07;17.42;;;4.43;;
70729;SDS011;58315;53.336;55.932;2023-06-10T14:17:34;17.20;;;4.68;;
70729;SDS011;58315;53.336;55.932;2023-06-10T14:19:59;14.02;;;4.28;;
70729;SDS011;58315;53.336;55.932;2023-06-10T14:22:25;7.22;;;3.97;;
70729;SDS011;58315;53.336;55.932;2023-06-10T14:24:51;24.80;;;3.85;;
70729;SDS011;58315;53.336;55.932;2023-06-10T14:27:17;9.00;;;3.30;;
70729;SDS011;58315;53.336;55.932;2023-06-10T14:29:44;10.98;;;3.10;;
70729;SDS011;58315;53.336;55.932;2023-06-10T14:32:10;16.98;;;3.47;;
70729;SDS011;58315;53.336;55.932;2023-06-10T14:34:36;15.45;;;2.97;;
70729;SDS011;58315;53.336;55.932;2023-06-10T14:37:02;8.25;;;2.70;;
70729;SDS011;58315;53.336;55.932;2023-06-10T14:39:33;7.65;;;2.63;;
70729;SDS011;58315;53.336;55.932;2023-06-10T14:41:59;4.03;;;2.10;;
70729;SDS011;58315;53.336;55.932;2023-06-10T14:44:25;7.28;;;2.70;;
70729;SDS011;58315;53.336;55.932;2023-06-10T14:46:51;8.73;;;3.05;;
70729;SDS011;58315;53.336;55.932;2023-06-10T14:49:17;6.05;;;2.72;;
70729;SDS011;58315;53.336;55.932;2023-06-10T14:51:43;5.25;;;2.92;;
70729;SDS011;58315;53.336;55.932;2023-06-10T14:54:10;12.55;;;3.30;;
70729;SDS011;58315;53.336;55.932;2023-06-10T14:56:36;6.25;;;3.15;;
70729;SDS011;58315;53.336;55.932;2023-06-10T14:59:02;6.47;;;3.70;;